sensor_id;sensor_type;location;lat;lon;timestamp;temperature;humidity
7572;DHT22;3827;49.928;8.548;2023-05-10T00:01:46;12.80;99.90
7572;DHT22;3827;49.928;8.548;2023-05-10T00:04:13;12.80;99.90
7572;DHT22;3827;49.928;8.548;2023-05-10T00:06:40;12.70;99.90
7572;DHT22;3827;49.928;8.548;2023-05-10T00:09:07;12.80;99.90
7572;DHT22;3827;49.928;8.548;2023-05-10T00:11:34;12.80;99.90
7572;DHT22;3827;49.928;8.548;2023-05-10T00:14:01;12.80;99.90
7572;DHT22;3827;49.928;8.548;2023-05-10T00:16:29;12.80;99.90
7572;DHT22;3827;49.928;8.548;2023-05-10T00:18:56;12.80;99.90
7572;DHT22;3827;49.928;8.548;2023-05-10T00:21:23;12.80;99.90
7572;DHT22;3827;49.928;8.548;2023-05-10T00:23:50;12.70;99.90
7572;DHT22;3827;49.928;8.548;2023-05-10T00:26:17;12.70;99.90
7572;DHT22;3827;49.928;8.548;2023-05-10T00:28:44;12.70;99.90
7572;DHT22;3827;49.928;8.548;2023-05-10T00:31:11;12.70;99.90
7572;DHT22;3827;49.928;8.548;2023-05-10T00:33:39;12.70;99.90
7572;DHT22;3827;49.928;8.548;2023-05-10T00:36:07;12.80;99.90
7572;DHT22;3827;49.928;8.548;2023-05-10T00:38:34;12.70;99.90
7572;DHT22;3827;49.928;8.548;2023-05-10T00:41:01;12.70;99.90
7572;DHT22;3827;49.928;8.548;2023-05-10T00:43:28;12.70;99.90
7572;DHT22;3827;49.928;8.548;2023-05-10T00:45:55;12.70;99.90
7572;DHT22;3827;49.928;8.548;2023-05-10T00:48:22;12.70;99.90
7572;DHT22;3827;49.928;8.548;2023-05-10T00:50:50;12.70;99.90
7572;DHT22;3827;49.928;8.548;2023-05-10T00:53:17;12.60;99.90
7572;DHT22;3827;49.928;8.548;2023-05-10T00:55:45;12.60;99.90
7572;DHT22;3827;49.928;8.548;2023-05-10T00:58:12;12.70;99.90
7572;DHT22;3827;49.928;8.548;2023-05-10T01:00:42;12.70;99.90
7572;DHT22;3827;49.928;8.548;2023-05-10T01:03:10;12.70;99.90
7572;DHT22;3827;49.928;8.548;2023-05-10T01:05:37;12.70;99.90
7572;DHT22;3827;49.928;8.548;2023-05-10T01:08:05;12.70;99.90
7572;DHT22;3827;49.928;8.548;2023-05-10T01:10:34;12.70;99.90
7572;DHT22;3827;49.928;8.548;2023-05-10T01:13:02;12.70;99.90
7572;DHT22;3827;49.928;8.548;2023-05-10T01:15:30;12.70;99.90
7572;DHT22;3827;49.928;8.548;2023-05-10T01:17:57;12.70;99.90
7572;DHT22;3827;49.928;8.548;2023-05-10T01:20:29;12.70;99.90
7572;DHT22;3827;49.928;8.548;2023-05-10T01:23:17;12.70;99.90
7572;DHT22;3827;49.928;8.548;2023-05-10T01:26:14;12.70;99.90
7572;DHT22;3827;49.928;8.548;2023-05-10T01:29:11;12.70;99.90
7572;DHT22;3827;49.928;8.548;2023-05-10T01:32:01;12.60;99.90
7572;DHT22;3827;49.928;8.548;2023-05-10T01:34:35;13.00;99.90
7572;DHT22;3827;49.928;8.548;2023-05-10T01:37:05;12.60;99.90
7572;DHT22;3827;49.928;8.548;2023-05-10T01:39:40;12.60;99.90
7572;DHT22;3827;49.928;8.548;2023-05-10T01:42:13;12.60;99.90
7572;DHT22;3827;49.928;8.548;2023-05-10T01:44:46;13.10;99.90
7572;DHT22;3827;49.928;8.548;2023-05-10T01:47:19;12.60;99.90
7572;DHT22;3827;49.928;8.548;2023-05-10T01:49:50;12.60;99.90
7572;DHT22;3827;49.928;8.548;2023-05-10T01:52:22;12.50;99.90
7572;DHT22;3827;49.928;8.548;2023-05-10T01:55:00;12.60;99.90
7572;DHT22;3827;49.928;8.548;2023-05-10T01:57:33;12.60;99.90
7572;DHT22;3827;49.928;8.548;2023-05-10T02:00:02;12.60;99.90
7572;DHT22;3827;49.928;8.548;2023-05-10T02:02:34;12.60;99.90
7572;DHT22;3827;49.928;8.548;2023-05-10T02:05:04;12.60;99.90
7572;DHT22;3827;49.928;8.548;2023-05-10T02:07:32;12.60;99.90
7572;DHT22;3827;49.928;8.548;2023-05-10T02:10:01;12.60;99.90
7572;DHT22;3827;49.928;8.548;2023-05-10T02:12:29;12.60;99.90
7572;DHT22;3827;49.928;8.548;2023-05-10T02:14:57;12.60;99.90
7572;DHT22;3827;49.928;8.548;2023-05-10T02:17:26;12.50;99.90
7572;DHT22;3827;49.928;8.548;2023-05-10T02:19:56;12.50;99.90
7572;DHT22;3827;49.928;8.548;2023-05-10T02:22:24;12.50;99.90
7572;DHT22;3827;49.928;8.548;2023-05-10T02:24:53;12.50;99.90
7572;DHT22;3827;49.928;8.548;2023-05-10T02:27:21;12.50;99.90
7572;DHT22;3827;49.928;8.548;2023-05-10T02:29:49;12.50;99.90
7572;DHT22;3827;49.928;8.548;2023-05-10T02:32:17;12.60;99.90
7572;DHT22;3827;49.928;8.548;2023-05-10T02:34:45;12.70;99.90
7572;DHT22;3827;49.928;8.548;2023-05-10T02:37:24;12.50;99.90
7572;DHT22;3827;49.928;8.548;2023-05-10T02:39:54;12.50;99.90
7572;DHT22;3827;49.928;8.548;2023-05-10T02:42:24;12.50;99.90
7572;DHT22;3827;49.928;8.548;2023-05-10T02:44:53;12.40;99.90
7572;DHT22;3827;49.928;8.548;2023-05-10T02:47:21;12.80;99.90
7572;DHT22;3827;49.928;8.548;2023-05-10T02:49:48;13.10;99.90
7572;DHT22;3827;49.928;8.548;2023-05-10T02:52:19;13.00;99.90
7572;DHT22;3827;49.928;8.548;2023-05-10T02:54:54;12.40;99.90
7572;DHT22;3827;49.928;8.548;2023-05-10T02:57:26;12.40;99.90
7572;DHT22;3827;49.928;8.548;2023-05-10T02:59:54;12.40;99.90
7572;DHT22;3827;49.928;8.548;2023-05-10T03:02:21;12.40;99.90
7572;DHT22;3827;49.928;8.548;2023-05-10T03:04:48;12.40;99.90
7572;DHT22;3827;49.928;8.548;2023-05-10T03:07:15;12.40;99.90
7572;DHT22;3827;49.928;8.548;2023-05-10T03:09:44;12.40;99.90
7572;DHT22;3827;49.928;8.548;2023-05-10T03:12:18;12.40;99.90
7572;DHT22;3827;49.928;8.548;2023-05-10T03:14:52;12.40;99.90
7572;DHT22;3827;49.928;8.548;2023-05-10T03:17:25;12.40;99.90
7572;DHT22;3827;49.928;8.548;2023-05-10T03:19:56;12.40;99.90
7572;DHT22;3827;49.928;8.548;2023-05-10T03:22:26;12.40;99.90
7572;DHT22;3827;49.928;8.548;2023-05-10T03:24:55;12.40;99.90
7572;DHT22;3827;49.928;8.548;2023-05-10T03:27:26;12.40;99.90
7572;DHT22;3827;49.928;8.548;2023-05-10T03:29:54;12.60;99.90
7572;DHT22;3827;49.928;8.548;2023-05-10T03:32:22;12.30;99.90
7572;DHT22;3827;49.928;8.548;2023-05-10T03:34:49;12.40;99.90
7572;DHT22;3827;49.928;8.548;2023-05-10T03:37:16;12.40;99.90
7572;DHT22;3827;49.928;8.548;2023-05-10T03:39:43;12.40;99.90
7572;DHT22;3827;49.928;8.548;2023-05-10T03:42:10;12.40;99.90
7572;DHT22;3827;49.928;8.548;2023-05-10T03:44:39;12.30;99.90
7572;DHT22;3827;49.928;8.548;2023-05-10T03:47:06;12.40;99.90
7572;DHT22;3827;49.928;8.548;2023-05-10T03:49:33;12.40;99.90
7572;DHT22;3827;49.928;8.548;2023-05-10T03:52:00;12.40;99.90
7572;DHT22;3827;49.928;8.548;2023-05-10T03:54:27;12.40;99.90
7572;DHT22;3827;49.928;8.548;2023-05-10T03:56:53;12.40;99.90
7572;DHT22;3827;49.928;8.548;2023-05-10T03:59:20;12.40;99.90
7572;DHT22;3827;49.928;8.548;2023-05-10T04:01:49;12.40;99.90
7572;DHT22;3827;49.928;8.548;2023-05-10T04:04:16;12.50;99.90
7572;DHT22;3827;49.928;8.548;2023-05-10T04:06:44;12.40;99.90
7572;DHT22;3827;49.928;8.548;2023-05-10T04:09:10;12.40;99.90
7572;DHT22;3827;49.928;8.548;2023-05-10T04:11:37;12.50;99.90
7572;DHT22;3827;49.928;8.548;2023-05-10T04:14:04;12.60;99.90
7572;DHT22;3827;49.928;8.548;2023-05-10T04:16:31;12.50;99.90
7572;DHT22;3827;49.928;8.548;2023-05-10T04:19:00;12.60;99.90
7572;DHT22;3827;49.928;8.548;2023-05-10T04:21:26;12.70;99.90
7572;DHT22;3827;49.928;8.548;2023-05-10T04:23:53;12.70;99.90
7572;DHT22;3827;49.928;8.548;2023-05-10T04:26:20;12.70;99.90
7572;DHT22;3827;49.928;8.548;2023-05-10T04:28:47;12.70;99.90
7572;DHT22;3827;49.928;8.548;2023-05-10T04:31:14;12.80;99.90
7572;DHT22;3827;49.928;8.548;2023-05-10T04:33:41;12.80;99.90
7572;DHT22;3827;49.928;8.548;2023-05-10T04:36:09;12.80;99.90
7572;DHT22;3827;49.928;8.548;2023-05-10T04:38:36;12.80;99.90
7572;DHT22;3827;49.928;8.548;2023-05-10T04:41:04;12.90;99.90
7572;DHT22;3827;49.928;8.548;2023-05-10T04:43:32;12.90;99.90
7572;DHT22;3827;49.928;8.548;2023-05-10T04:45:59;12.90;99.90
7572;DHT22;3827;49.928;8.548;2023-05-10T04:48:26;13.00;99.90
7572;DHT22;3827;49.928;8.548;2023-05-10T04:50:53;13.00;99.90
7572;DHT22;3827;49.928;8.548;2023-05-10T04:53:21;13.00;99.90
7572;DHT22;3827;49.928;8.548;2023-05-10T04:55:48;13.10;99.90
7572;DHT22;3827;49.928;8.548;2023-05-10T04:58:15;13.10;99.90
7572;DHT22;3827;49.928;8.548;2023-05-10T05:00:42;13.10;99.90
7572;DHT22;3827;49.928;8.548;2023-05-10T05:03:09;13.10;99.90
7572;DHT22;3827;49.928;8.548;2023-05-10T05:05:36;13.10;99.90
7572;DHT22;3827;49.928;8.548;2023-05-10T05:08:03;13.10;99.90
7572;DHT22;3827;49.928;8.548;2023-05-10T05:10:32;13.10;99.90
7572;DHT22;3827;49.928;8.548;2023-05-10T05:12:58;13.10;99.90
7572;DHT22;3827;49.928;8.548;2023-05-10T05:15:25;13.10;99.90
7572;DHT22;3827;49.928;8.548;2023-05-10T05:17:53;13.10;99.90
7572;DHT22;3827;49.928;8.548;2023-05-10T05:20:20;13.10;99.90
7572;DHT22;3827;49.928;8.548;2023-05-10T05:22:47;13.10;99.90
7572;DHT22;3827;49.928;8.548;2023-05-10T05:25:14;13.20;99.90
7572;DHT22;3827;49.928;8.548;2023-05-10T05:27:42;13.20;99.90
7572;DHT22;3827;49.928;8.548;2023-05-10T05:30:10;13.50;99.90
7572;DHT22;3827;49.928;8.548;2023-05-10T05:32:38;13.20;99.90
7572;DHT22;3827;49.928;8.548;2023-05-10T05:35:05;13.30;99.90
7572;DHT22;3827;49.928;8.548;2023-05-10T05:37:32;13.30;99.90
7572;DHT22;3827;49.928;8.548;2023-05-10T05:39:59;13.30;99.90
7572;DHT22;3827;49.928;8.548;2023-05-10T05:42:27;13.30;99.90
7572;DHT22;3827;49.928;8.548;2023-05-10T05:44:55;13.30;99.90
7572;DHT22;3827;49.928;8.548;2023-05-10T05:47:22;13.30;99.90
7572;DHT22;3827;49.928;8.548;2023-05-10T05:49:49;13.40;99.90
7572;DHT22;3827;49.928;8.548;2023-05-10T05:52:16;13.40;99.90
7572;DHT22;3827;49.928;8.548;2023-05-10T05:54:43;13.60;99.90
7572;DHT22;3827;49.928;8.548;2023-05-10T05:57:10;14.00;99.90
7572;DHT22;3827;49.928;8.548;2023-05-10T05:59:36;13.80;99.90
7572;DHT22;3827;49.928;8.548;2023-05-10T06:02:08;13.90;99.90
7572;DHT22;3827;49.928;8.548;2023-05-10T06:04:35;14.10;99.90
7572;DHT22;3827;49.928;8.548;2023-05-10T06:07:02;14.10;99.90
7572;DHT22;3827;49.928;8.548;2023-05-10T06:09:29;14.20;99.90
7572;DHT22;3827;49.928;8.548;2023-05-10T06:11:55;14.20;99.90
7572;DHT22;3827;49.928;8.548;2023-05-10T06:14:22;14.30;99.90
7572;DHT22;3827;49.928;8.548;2023-05-10T06:16:49;14.40;99.90
7572;DHT22;3827;49.928;8.548;2023-05-10T06:19:17;14.40;99.90
7572;DHT22;3827;49.928;8.548;2023-05-10T06:21:44;14.40;99.90
7572;DHT22;3827;49.928;8.548;2023-05-10T06:24:11;14.30;99.90
7572;DHT22;3827;49.928;8.548;2023-05-10T06:26:37;14.30;99.90
7572;DHT22;3827;49.928;8.548;2023-05-10T06:29:04;14.40;99.90
7572;DHT22;3827;49.928;8.548;2023-05-10T06:31:31;14.70;99.90
7572;DHT22;3827;49.928;8.548;2023-05-10T06:33:58;14.60;99.90
7572;DHT22;3827;49.928;8.548;2023-05-10T06:36:26;14.60;99.90
7572;DHT22;3827;49.928;8.548;2023-05-10T06:38:53;14.70;99.90
7572;DHT22;3827;49.928;8.548;2023-05-10T06:41:20;14.70;99.90
7572;DHT22;3827;49.928;8.548;2023-05-10T06:43:47;14.80;99.90
7572;DHT22;3827;49.928;8.548;2023-05-10T06:46:13;14.80;99.90
7572;DHT22;3827;49.928;8.548;2023-05-10T06:48:40;14.80;99.90
7572;DHT22;3827;49.928;8.548;2023-05-10T06:51:07;14.90;99.90
7572;DHT22;3827;49.928;8.548;2023-05-10T06:53:35;15.00;99.90
7572;DHT22;3827;49.928;8.548;2023-05-10T06:56:02;15.10;99.90
7572;DHT22;3827;49.928;8.548;2023-05-10T06:58:29;15.20;99.90
7572;DHT22;3827;49.928;8.548;2023-05-10T07:01:02;15.00;99.90
7572;DHT22;3827;49.928;8.548;2023-05-10T07:03:29;15.10;99.90
7572;DHT22;3827;49.928;8.548;2023-05-10T07:06:00;15.10;99.90
7572;DHT22;3827;49.928;8.548;2023-05-10T07:08:28;15.10;99.90
7572;DHT22;3827;49.928;8.548;2023-05-10T07:11:01;15.20;99.90
7572;DHT22;3827;49.928;8.548;2023-05-10T07:13:29;15.40;99.90
7572;DHT22;3827;49.928;8.548;2023-05-10T07:15:56;15.40;99.90
7572;DHT22;3827;49.928;8.548;2023-05-10T07:18:23;15.60;99.90
7572;DHT22;3827;49.928;8.548;2023-05-10T07:20:51;15.70;99.90
7572;DHT22;3827;49.928;8.548;2023-05-10T07:23:18;15.80;99.90
7572;DHT22;3827;49.928;8.548;2023-05-10T07:25:45;15.90;99.90
7572;DHT22;3827;49.928;8.548;2023-05-10T07:28:14;16.00;99.90
7572;DHT22;3827;49.928;8.548;2023-05-10T07:30:42;16.20;99.90
7572;DHT22;3827;49.928;8.548;2023-05-10T07:33:10;16.20;99.90
7572;DHT22;3827;49.928;8.548;2023-05-10T07:35:37;16.30;99.90
7572;DHT22;3827;49.928;8.548;2023-05-10T07:38:04;16.40;99.90
7572;DHT22;3827;49.928;8.548;2023-05-10T07:40:32;16.40;99.90
7572;DHT22;3827;49.928;8.548;2023-05-10T07:42:59;16.50;99.90
7572;DHT22;3827;49.928;8.548;2023-05-10T07:45:28;16.50;99.90
7572;DHT22;3827;49.928;8.548;2023-05-10T07:47:55;16.50;99.90
7572;DHT22;3827;49.928;8.548;2023-05-10T07:50:22;16.70;99.90
7572;DHT22;3827;49.928;8.548;2023-05-10T07:52:49;16.50;99.90
7572;DHT22;3827;49.928;8.548;2023-05-10T07:55:18;16.50;99.90
7572;DHT22;3827;49.928;8.548;2023-05-10T07:57:45;16.50;99.90
7572;DHT22;3827;49.928;8.548;2023-05-10T08:00:13;16.60;99.90
7572;DHT22;3827;49.928;8.548;2023-05-10T08:02:44;16.60;99.90
7572;DHT22;3827;49.928;8.548;2023-05-10T08:05:11;16.50;99.90
7572;DHT22;3827;49.928;8.548;2023-05-10T08:07:39;16.60;99.90
7572;DHT22;3827;49.928;8.548;2023-05-10T08:10:07;16.80;99.90
7572;DHT22;3827;49.928;8.548;2023-05-10T08:12:34;16.70;99.90
7572;DHT22;3827;49.928;8.548;2023-05-10T08:15:01;16.60;99.90
7572;DHT22;3827;49.928;8.548;2023-05-10T08:17:28;16.90;99.90
7572;DHT22;3827;49.928;8.548;2023-05-10T08:19:57;16.60;99.90
7572;DHT22;3827;49.928;8.548;2023-05-10T08:22:24;16.80;99.90
7572;DHT22;3827;49.928;8.548;2023-05-10T08:24:51;16.70;99.90
7572;DHT22;3827;49.928;8.548;2023-05-10T08:27:18;17.00;99.90
7572;DHT22;3827;49.928;8.548;2023-05-10T08:29:45;16.80;99.90
7572;DHT22;3827;49.928;8.548;2023-05-10T08:32:12;16.90;99.90
7572;DHT22;3827;49.928;8.548;2023-05-10T08:34:39;16.90;99.90
7572;DHT22;3827;49.928;8.548;2023-05-10T08:37:07;16.80;99.90
7572;DHT22;3827;49.928;8.548;2023-05-10T08:39:36;16.70;99.90
7572;DHT22;3827;49.928;8.548;2023-05-10T08:42:04;16.40;99.90
7572;DHT22;3827;49.928;8.548;2023-05-10T08:44:32;16.30;99.90
7572;DHT22;3827;49.928;8.548;2023-05-10T08:47:04;16.20;99.90
7572;DHT22;3827;49.928;8.548;2023-05-10T08:49:32;16.00;99.90
7572;DHT22;3827;49.928;8.548;2023-05-10T08:52:02;16.00;99.90
7572;DHT22;3827;49.928;8.548;2023-05-10T08:54:31;16.20;99.90
7572;DHT22;3827;49.928;8.548;2023-05-10T08:56:59;16.10;99.90
7572;DHT22;3827;49.928;8.548;2023-05-10T08:59:26;16.20;99.90
7572;DHT22;3827;49.928;8.548;2023-05-10T09:01:54;16.10;99.90
7572;DHT22;3827;49.928;8.548;2023-05-10T09:04:22;15.70;99.90
7572;DHT22;3827;49.928;8.548;2023-05-10T09:06:49;15.30;99.90
7572;DHT22;3827;49.928;8.548;2023-05-10T09:09:17;14.90;99.90
7572;DHT22;3827;49.928;8.548;2023-05-10T09:11:45;14.70;99.90
7572;DHT22;3827;49.928;8.548;2023-05-10T09:14:13;14.40;99.90
7572;DHT22;3827;49.928;8.548;2023-05-10T09:16:40;14.40;99.90
7572;DHT22;3827;49.928;8.548;2023-05-10T09:19:08;14.30;99.90
7572;DHT22;3827;49.928;8.548;2023-05-10T09:21:35;14.40;99.90
7572;DHT22;3827;49.928;8.548;2023-05-10T09:24:04;14.60;99.90
7572;DHT22;3827;49.928;8.548;2023-05-10T09:26:31;14.60;99.90
7572;DHT22;3827;49.928;8.548;2023-05-10T09:29:00;14.70;99.90
7572;DHT22;3827;49.928;8.548;2023-05-10T09:31:49;14.70;99.90
7572;DHT22;3827;49.928;8.548;2023-05-10T09:34:19;14.60;99.90
7572;DHT22;3827;49.928;8.548;2023-05-10T09:36:51;14.50;99.90
7572;DHT22;3827;49.928;8.548;2023-05-10T09:39:19;14.40;99.90
7572;DHT22;3827;49.928;8.548;2023-05-10T09:41:46;14.30;99.90
7572;DHT22;3827;49.928;8.548;2023-05-10T09:44:18;14.30;99.90
7572;DHT22;3827;49.928;8.548;2023-05-10T09:46:49;14.30;99.90
7572;DHT22;3827;49.928;8.548;2023-05-10T09:49:24;14.20;99.90
7572;DHT22;3827;49.928;8.548;2023-05-10T09:52:02;14.20;99.90
7572;DHT22;3827;49.928;8.548;2023-05-10T09:54:29;14.20;99.90
7572;DHT22;3827;49.928;8.548;2023-05-10T09:56:56;14.30;99.90
7572;DHT22;3827;49.928;8.548;2023-05-10T09:59:27;14.40;99.90
7572;DHT22;3827;49.928;8.548;2023-05-10T10:01:56;14.40;99.90
7572;DHT22;3827;49.928;8.548;2023-05-10T10:04:23;14.50;99.90
7572;DHT22;3827;49.928;8.548;2023-05-10T10:06:59;14.70;99.90
7572;DHT22;3827;49.928;8.548;2023-05-10T10:09:26;14.90;99.90
7572;DHT22;3827;49.928;8.548;2023-05-10T10:11:54;15.00;99.90
7572;DHT22;3827;49.928;8.548;2023-05-10T10:14:21;15.40;99.90
7572;DHT22;3827;49.928;8.548;2023-05-10T10:16:50;15.50;99.90
7572;DHT22;3827;49.928;8.548;2023-05-10T10:19:18;15.80;99.90
7572;DHT22;3827;49.928;8.548;2023-05-10T10:21:45;16.10;99.90
7572;DHT22;3827;49.928;8.548;2023-05-10T10:24:12;16.10;99.90
7572;DHT22;3827;49.928;8.548;2023-05-10T10:26:39;16.50;99.90
7572;DHT22;3827;49.928;8.548;2023-05-10T10:29:15;16.20;99.90
7572;DHT22;3827;49.928;8.548;2023-05-10T10:31:47;16.20;99.90
7572;DHT22;3827;49.928;8.548;2023-05-10T10:34:25;16.10;99.90
7572;DHT22;3827;49.928;8.548;2023-05-10T10:36:52;15.80;99.90
7572;DHT22;3827;49.928;8.548;2023-05-10T10:39:20;15.60;99.90
7572;DHT22;3827;49.928;8.548;2023-05-10T10:41:52;15.50;99.90
7572;DHT22;3827;49.928;8.548;2023-05-10T10:44:33;15.20;99.90
7572;DHT22;3827;49.928;8.548;2023-05-10T10:47:06;15.10;99.90
7572;DHT22;3827;49.928;8.548;2023-05-10T10:49:43;15.00;99.90
7572;DHT22;3827;49.928;8.548;2023-05-10T10:52:22;15.00;99.90
7572;DHT22;3827;49.928;8.548;2023-05-10T10:54:53;15.00;99.90
7572;DHT22;3827;49.928;8.548;2023-05-10T10:57:24;14.90;99.90
7572;DHT22;3827;49.928;8.548;2023-05-10T10:59:53;15.10;99.90
7572;DHT22;3827;49.928;8.548;2023-05-10T11:02:46;15.20;99.90
7572;DHT22;3827;49.928;8.548;2023-05-10T11:05:41;15.50;99.90
7572;DHT22;3827;49.928;8.548;2023-05-10T11:08:13;15.40;99.90
7572;DHT22;3827;49.928;8.548;2023-05-10T11:10:48;15.60;99.90
7572;DHT22;3827;49.928;8.548;2023-05-10T11:13:15;15.70;99.90
7572;DHT22;3827;49.928;8.548;2023-05-10T11:15:48;15.90;99.90
7572;DHT22;3827;49.928;8.548;2023-05-10T11:18:17;16.20;99.90
7572;DHT22;3827;49.928;8.548;2023-05-10T11:20:50;16.20;99.90
7572;DHT22;3827;49.928;8.548;2023-05-10T11:23:17;16.20;99.90
7572;DHT22;3827;49.928;8.548;2023-05-10T11:25:46;16.40;99.90
7572;DHT22;3827;49.928;8.548;2023-05-10T11:28:16;16.70;99.90
7572;DHT22;3827;49.928;8.548;2023-05-10T11:30:44;16.60;99.90
7572;DHT22;3827;49.928;8.548;2023-05-10T11:33:15;16.70;99.90
7572;DHT22;3827;49.928;8.548;2023-05-10T11:35:45;16.70;99.90
7572;DHT22;3827;49.928;8.548;2023-05-10T11:38:13;17.20;99.90
7572;DHT22;3827;49.928;8.548;2023-05-10T11:40:41;17.50;99.90
7572;DHT22;3827;49.928;8.548;2023-05-10T11:43:09;17.70;99.90
7572;DHT22;3827;49.928;8.548;2023-05-10T11:45:37;18.10;99.90
7572;DHT22;3827;49.928;8.548;2023-05-10T11:48:04;18.40;99.90
7572;DHT22;3827;49.928;8.548;2023-05-10T11:50:31;18.50;99.90
7572;DHT22;3827;49.928;8.548;2023-05-10T11:52:59;19.10;99.90
7572;DHT22;3827;49.928;8.548;2023-05-10T11:55:26;19.70;99.90
7572;DHT22;3827;49.928;8.548;2023-05-10T11:57:53;20.00;99.90
7572;DHT22;3827;49.928;8.548;2023-05-10T12:00:20;20.40;99.90
7572;DHT22;3827;49.928;8.548;2023-05-10T12:02:48;20.30;99.90
7572;DHT22;3827;49.928;8.548;2023-05-10T12:05:15;19.40;99.90
7572;DHT22;3827;49.928;8.548;2023-05-10T12:07:42;19.10;99.90
7572;DHT22;3827;49.928;8.548;2023-05-10T12:10:12;18.70;99.90
7572;DHT22;3827;49.928;8.548;2023-05-10T12:12:41;18.90;99.90
7572;DHT22;3827;49.928;8.548;2023-05-10T12:15:11;19.80;99.90
7572;DHT22;3827;49.928;8.548;2023-05-10T12:17:39;19.50;99.90
7572;DHT22;3827;49.928;8.548;2023-05-10T12:20:17;20.50;99.90
7572;DHT22;3827;49.928;8.548;2023-05-10T12:22:45;21.20;99.90
7572;DHT22;3827;49.928;8.548;2023-05-10T12:25:13;21.40;99.90
7572;DHT22;3827;49.928;8.548;2023-05-10T12:27:47;21.20;99.90
7572;DHT22;3827;49.928;8.548;2023-05-10T12:30:19;20.20;99.90
7572;DHT22;3827;49.928;8.548;2023-05-10T12:32:47;20.20;99.90
7572;DHT22;3827;49.928;8.548;2023-05-10T12:35:14;21.00;99.90
7572;DHT22;3827;49.928;8.548;2023-05-10T12:37:42;21.00;99.90
7572;DHT22;3827;49.928;8.548;2023-05-10T12:40:10;21.60;99.90
7572;DHT22;3827;49.928;8.548;2023-05-10T12:42:39;21.50;99.90
7572;DHT22;3827;49.928;8.548;2023-05-10T12:45:08;20.90;99.90
7572;DHT22;3827;49.928;8.548;2023-05-10T12:47:35;20.90;99.90
7572;DHT22;3827;49.928;8.548;2023-05-10T12:50:02;20.20;99.90
7572;DHT22;3827;49.928;8.548;2023-05-10T12:52:30;19.80;99.90
7572;DHT22;3827;49.928;8.548;2023-05-10T12:54:58;20.50;99.90
7572;DHT22;3827;49.928;8.548;2023-05-10T12:57:25;20.40;99.90
7572;DHT22;3827;49.928;8.548;2023-05-10T12:59:54;19.30;99.90
7572;DHT22;3827;49.928;8.548;2023-05-10T13:02:20;19.50;99.90
7572;DHT22;3827;49.928;8.548;2023-05-10T13:04:48;20.10;99.90
7572;DHT22;3827;49.928;8.548;2023-05-10T13:07:15;20.30;99.90
7572;DHT22;3827;49.928;8.548;2023-05-10T13:09:42;19.10;99.90
7572;DHT22;3827;49.928;8.548;2023-05-10T13:12:09;19.10;99.90
7572;DHT22;3827;49.928;8.548;2023-05-10T13:14:36;18.60;99.90
7572;DHT22;3827;49.928;8.548;2023-05-10T13:17:04;19.10;99.90
7572;DHT22;3827;49.928;8.548;2023-05-10T13:19:31;18.60;99.90
7572;DHT22;3827;49.928;8.548;2023-05-10T13:21:58;18.30;99.90
7572;DHT22;3827;49.928;8.548;2023-05-10T13:24:24;18.40;99.90
7572;DHT22;3827;49.928;8.548;2023-05-10T13:26:51;18.30;99.90
7572;DHT22;3827;49.928;8.548;2023-05-10T13:29:18;18.00;99.90
7572;DHT22;3827;49.928;8.548;2023-05-10T13:31:46;18.30;99.90
7572;DHT22;3827;49.928;8.548;2023-05-10T13:34:14;18.00;99.90
7572;DHT22;3827;49.928;8.548;2023-05-10T13:36:41;18.20;99.90
7572;DHT22;3827;49.928;8.548;2023-05-10T13:39:08;17.80;99.90
7572;DHT22;3827;49.928;8.548;2023-05-10T13:41:34;17.60;99.90
7572;DHT22;3827;49.928;8.548;2023-05-10T13:44:02;17.80;99.90
7572;DHT22;3827;49.928;8.548;2023-05-10T13:46:29;17.60;99.90
7572;DHT22;3827;49.928;8.548;2023-05-10T13:48:56;17.90;99.90
7572;DHT22;3827;49.928;8.548;2023-05-10T13:51:24;18.20;99.90
7572;DHT22;3827;49.928;8.548;2023-05-10T13:53:51;18.20;99.90
7572;DHT22;3827;49.928;8.548;2023-05-10T13:56:18;18.90;99.90
7572;DHT22;3827;49.928;8.548;2023-05-10T13:58:44;19.30;99.90
7572;DHT22;3827;49.928;8.548;2023-05-10T14:01:11;19.70;99.90
7572;DHT22;3827;49.928;8.548;2023-05-10T14:03:38;19.80;99.90
7572;DHT22;3827;49.928;8.548;2023-05-10T14:06:05;19.70;99.90
7572;DHT22;3827;49.928;8.548;2023-05-10T14:08:34;20.20;99.90
7572;DHT22;3827;49.928;8.548;2023-05-10T14:11:02;20.50;99.90
7572;DHT22;3827;49.928;8.548;2023-05-10T14:13:28;21.00;99.90
7572;DHT22;3827;49.928;8.548;2023-05-10T14:15:55;20.90;99.90
7572;DHT22;3827;49.928;8.548;2023-05-10T14:18:22;20.20;99.90
7572;DHT22;3827;49.928;8.548;2023-05-10T14:20:49;19.80;99.90
7572;DHT22;3827;49.928;8.548;2023-05-10T14:23:16;19.20;99.90
7572;DHT22;3827;49.928;8.548;2023-05-10T14:25:46;18.80;99.90
7572;DHT22;3827;49.928;8.548;2023-05-10T14:28:13;18.70;99.90
7572;DHT22;3827;49.928;8.548;2023-05-10T14:30:40;18.20;99.90
7572;DHT22;3827;49.928;8.548;2023-05-10T14:33:07;18.00;99.90
7572;DHT22;3827;49.928;8.548;2023-05-10T14:35:34;17.70;99.90
7572;DHT22;3827;49.928;8.548;2023-05-10T14:38:01;17.80;99.90
7572;DHT22;3827;49.928;8.548;2023-05-10T14:40:28;17.80;99.90
7572;DHT22;3827;49.928;8.548;2023-05-10T14:42:57;18.10;99.90
7572;DHT22;3827;49.928;8.548;2023-05-10T14:45:23;18.00;99.90
7572;DHT22;3827;49.928;8.548;2023-05-10T14:47:50;18.10;99.90
7572;DHT22;3827;49.928;8.548;2023-05-10T14:50:17;18.30;99.90
7572;DHT22;3827;49.928;8.548;2023-05-10T14:52:44;18.10;99.90
7572;DHT22;3827;49.928;8.548;2023-05-10T14:55:11;18.00;99.90
7572;DHT22;3827;49.928;8.548;2023-05-10T14:57:38;17.90;99.90
7572;DHT22;3827;49.928;8.548;2023-05-10T15:00:07;18.10;99.90
7572;DHT22;3827;49.928;8.548;2023-05-10T15:02:34;18.20;99.90
7572;DHT22;3827;49.928;8.548;2023-05-10T15:05:01;18.30;99.90
7572;DHT22;3827;49.928;8.548;2023-05-10T15:07:28;18.50;99.90
7572;DHT22;3827;49.928;8.548;2023-05-10T15:09:55;18.60;99.90
7572;DHT22;3827;49.928;8.548;2023-05-10T15:12:21;18.70;99.90
7572;DHT22;3827;49.928;8.548;2023-05-10T15:14:48;18.70;99.90
7572;DHT22;3827;49.928;8.548;2023-05-10T15:17:16;18.60;99.90
7572;DHT22;3827;49.928;8.548;2023-05-10T15:19:43;18.50;99.90
7572;DHT22;3827;49.928;8.548;2023-05-10T15:22:10;18.50;99.90
7572;DHT22;3827;49.928;8.548;2023-05-10T15:24:37;18.50;99.90
7572;DHT22;3827;49.928;8.548;2023-05-10T15:27:04;18.40;99.90
7572;DHT22;3827;49.928;8.548;2023-05-10T15:29:31;18.30;99.90
7572;DHT22;3827;49.928;8.548;2023-05-10T15:31:59;18.20;99.90
7572;DHT22;3827;49.928;8.548;2023-05-10T15:34:29;18.40;99.90
7572;DHT22;3827;49.928;8.548;2023-05-10T15:36:56;18.50;99.90
7572;DHT22;3827;49.928;8.548;2023-05-10T15:39:23;18.40;99.90
7572;DHT22;3827;49.928;8.548;2023-05-10T15:41:50;18.40;99.90
7572;DHT22;3827;49.928;8.548;2023-05-10T15:44:17;18.40;99.90
7572;DHT22;3827;49.928;8.548;2023-05-10T15:46:44;18.40;99.90
7572;DHT22;3827;49.928;8.548;2023-05-10T15:49:11;18.50;99.90
7572;DHT22;3827;49.928;8.548;2023-05-10T15:51:39;18.60;99.90
7572;DHT22;3827;49.928;8.548;2023-05-10T15:54:06;18.60;99.90
7572;DHT22;3827;49.928;8.548;2023-05-10T15:56:33;18.70;99.90
7572;DHT22;3827;49.928;8.548;2023-05-10T15:59:00;18.70;99.90
7572;DHT22;3827;49.928;8.548;2023-05-10T16:01:28;18.70;99.90
7572;DHT22;3827;49.928;8.548;2023-05-10T16:03:55;18.70;99.90
7572;DHT22;3827;49.928;8.548;2023-05-10T16:06:22;18.70;99.90
7572;DHT22;3827;49.928;8.548;2023-05-10T16:08:50;18.70;99.90
7572;DHT22;3827;49.928;8.548;2023-05-10T16:11:17;18.70;99.90